Jump to content

  •  

SUNWING AIRLINES FLIGHT WG683 FLOWN ON 11-11-2017 BY CAPTAIN ADEL CABALLIN

Pilot StatsCaptain Adel Caballin (LDP11) • 710.2 total hours • 384 total flights [View Logbook]
FLIGHT DETAILS
StatusReceived and approved on 2017-11-12 at 00:11:01
Origin AirportGrand Bahama Intl (MYGF) • Freeport, Bahamas, The (7 feet MSL)
Filed Flight PlanMYGF PADUS BR70V TURBO AR10 DHP G439 DROWN MUVR
Destination AirportJuan G. Gomez Intl (MUVR) • Varadero, Cuba (210 feet MSL)
Alternate AirportJose Marti Intl (MUHA) • Havana, Cuba (210 feet MSL)
AirlineSunWing Airlines
AircraftBoeing 737-800 | Winglets (73H / B737-800)
FS Aircraft UsedBoeing 737-8HXNGX Sunwing Airlines
Cruising AltitudeFL300
Distance Flown259 nautical miles
Passengers Onboard109 passengers (67.28% full)
DEPARTURE DETAILS
Time Out10:45:14
Taxi Data135,002 lbs total with 19,802 lbs of fuel onboard
Takeoff Data10:57:36 (12 minutes after leaving gate/ramp) • 134,466 lbs total • 7° pitch at 155 knots
Departure METARMYGF 120000Z 08009KT 9999 SCT018 26/21 A3007
ARRIVAL DETAILS
Landing Data11:48:53 • 129,243 lbs total • 5° pitch doing 132 knots at a rate of -93.04 feet/minute with 13,698 lbs of fuel onboard
Time In11:54:42 (6 minutes after landing)
Ramp Weight128,898 lbs total
Total Fuel Used6,104 lbs
Total Block Time01:09:21 (1.2 hours) while 18 minutes were spent on the ground
Arrival METARMUVR 120451Z 05013KT 9000 BKN020 26/22 Q1015
MISCELLANEOUS DETAILS
LiveDISPATCH Version4.8.3.1
FS Version
FSUIPC Version4.97
OS VersionWindows 7 32-bit
Screen Resolution1920 x 1080
Pilot's CommentsRoute: BUUCK1 ZBV TADPO PESBI1A
FLIGHT MAP